createdAt,value
2018-01-12T00:01:49.502Z,128.70
2018-01-12T00:04:21.302Z,149.90
2018-01-12T00:06:52.603Z,133.60
2018-01-12T00:09:27.936Z,133.37
2018-01-12T00:12:00.005Z,137.37
2018-01-12T00:14:29.830Z,124.90
2018-01-12T00:17:00.241Z,143.73
2018-01-12T00:19:29.782Z,137.00
2018-01-12T00:21:59.698Z,140.17
2018-01-12T00:24:31.981Z,133.63
2018-01-12T00:27:01.770Z,137.53
2018-01-12T00:29:31.347Z,143.80
2018-01-12T00:32:00.966Z,130.53
2018-01-12T00:34:30.738Z,205.23
2018-01-12T00:37:01.533Z,149.40
2018-01-12T00:39:31.351Z,143.33
2018-01-12T00:42:10.596Z,139.20
2018-01-12T00:44:40.393Z,146.03
2018-01-12T00:47:10.162Z,156.90
2018-01-12T00:49:39.770Z,134.60
2018-01-12T00:52:09.999Z,144.60
2018-01-12T00:54:41.353Z,191.13
2018-01-12T00:57:11.365Z,177.37
2018-01-12T00:59:42.401Z,170.50
2018-01-12T01:02:19.660Z,126.10
2018-01-12T01:05:00.748Z,116.37
2018-01-12T01:07:39.592Z,119.30
2018-01-12T01:10:09.371Z,181.07
2018-01-12T01:12:39.972Z,128.80
2018-01-12T01:15:14.895Z,124.30
2018-01-12T01:17:44.658Z,115.43
2018-01-12T01:20:14.379Z,131.57
2018-01-12T01:22:43.935Z,119.50
2018-01-12T01:25:13.595Z,115.27
2018-01-12T01:27:43.190Z,130.17
2018-01-12T01:30:13.440Z,136.53
2018-01-12T01:32:43.444Z,139.10
2018-01-12T01:35:12.946Z,129.67
2018-01-12T01:37:42.407Z,133.13
2018-01-12T01:40:11.984Z,127.37
2018-01-12T01:42:41.592Z,130.17
2018-01-12T01:45:11.060Z,115.33
2018-01-12T01:47:40.571Z,115.00
2018-01-12T01:50:10.485Z,129.63
2018-01-12T01:52:40.550Z,113.97
2018-01-12T01:55:10.151Z,137.50
2018-01-12T01:57:39.691Z,141.17
2018-01-12T02:00:09.992Z,133.67
2018-01-12T02:02:40.013Z,128.47
2018-01-12T02:05:09.615Z,134.10
2018-01-12T02:07:39.783Z,130.13
2018-01-12T02:10:15.792Z,145.30
2018-01-12T02:12:46.515Z,126.27
2018-01-12T02:15:17.474Z,139.07
2018-01-12T02:17:47.017Z,133.97
2018-01-12T02:20:17.057Z,122.30
2018-01-12T02:22:47.754Z,131.77
2018-01-12T02:25:18.227Z,140.53
2018-01-12T02:27:49.333Z,135.70
2018-01-12T02:30:20.051Z,133.80
2018-01-12T02:32:53.313Z,194.00
2018-01-12T02:35:23.018Z,138.73
2018-01-12T02:37:52.621Z,150.47
2018-01-12T02:40:22.275Z,134.87
2018-01-12T02:42:52.546Z,144.63
2018-01-12T02:45:22.638Z,131.30
2018-01-12T02:47:52.583Z,148.37
2018-01-12T02:50:22.134Z,148.10
2018-01-12T02:52:52.165Z,125.33
2018-01-12T02:55:22.895Z,140.50
2018-01-12T02:57:53.184Z,149.03
2018-01-12T03:00:22.834Z,128.13
2018-01-12T03:02:52.609Z,128.40
2018-01-12T03:05:23.353Z,147.97
2018-01-12T03:07:53.829Z,151.20
2018-01-12T03:10:24.620Z,157.03
2018-01-12T03:12:54.040Z,124.07
2018-01-12T03:15:23.687Z,130.80
2018-01-12T03:17:54.625Z,130.20
2018-01-12T03:20:24.520Z,156.13
2018-01-12T03:22:58.798Z,148.73
2018-01-12T03:25:39.442Z,160.70
2018-01-12T03:28:21.576Z,157.50
2018-01-12T03:30:51.308Z,142.17
2018-01-12T03:33:22.027Z,150.40
2018-01-12T03:35:56.009Z,154.57
2018-01-12T03:38:26.556Z,158.73
2018-01-12T03:41:11.577Z,133.77
2018-01-12T03:43:46.957Z,167.77
2018-01-12T03:46:17.866Z,167.53
2018-01-12T03:48:47.977Z,173.50
2018-01-12T03:51:20.831Z,182.77
2018-01-12T03:53:53.674Z,193.07
2018-01-12T03:56:23.120Z,190.77
2018-01-12T03:58:52.590Z,196.13
2018-01-12T04:01:22.163Z,191.73
2018-01-12T04:03:53.654Z,199.67
2018-01-12T04:06:23.107Z,174.20
2018-01-12T04:08:53.390Z,183.43
2018-01-12T04:12:25.870Z,176.30
2018-01-12T04:14:55.324Z,201.07
2018-01-12T04:17:24.877Z,204.50
2018-01-12T04:19:54.504Z,211.03
2018-01-12T04:22:29.935Z,238.53
2018-01-12T04:25:00.581Z,201.10
2018-01-12T04:27:31.039Z,203.83
2018-01-12T04:30:02.208Z,192.07
2018-01-12T04:32:32.625Z,230.60
2018-01-12T04:35:02.104Z,228.57
2018-01-12T04:37:31.771Z,227.60
2018-01-12T04:40:02.393Z,235.20
2018-01-12T04:42:31.980Z,246.77
2018-01-12T04:45:01.782Z,263.40
2018-01-12T04:47:31.433Z,235.17
2018-01-12T04:50:01.004Z,262.38
2018-01-12T04:52:30.538Z,250.33
2018-01-12T04:55:00.005Z,271.67
2018-01-12T04:57:29.695Z,258.30
2018-01-12T04:59:59.268Z,281.03
2018-01-12T05:02:28.714Z,260.90
2018-01-12T05:04:58.328Z,306.70
2018-01-12T05:07:28.038Z,291.00
2018-01-12T05:09:57.652Z,298.67
2018-01-12T05:12:27.047Z,290.70
2018-01-12T05:14:56.771Z,301.63
2018-01-12T05:17:26.225Z,276.97
2018-01-12T05:19:55.817Z,276.20
2018-01-12T05:22:25.695Z,295.53
2018-01-12T05:24:55.377Z,274.63
2018-01-12T05:27:27.242Z,308.70
2018-01-12T05:29:56.820Z,287.27
2018-01-12T05:32:26.501Z,291.70
2018-01-12T05:34:56.284Z,298.53
2018-01-12T05:37:25.809Z,286.83
2018-01-12T05:39:55.528Z,314.10
2018-01-12T05:42:25.773Z,294.10
2018-01-12T05:44:56.284Z,278.87
2018-01-12T05:47:25.786Z,277.33
2018-01-12T05:49:56.061Z,270.67
2018-01-12T05:52:25.534Z,263.20
2018-01-12T05:54:55.431Z,287.57
2018-01-12T05:57:25.102Z,345.87
2018-01-12T05:59:54.666Z,323.17
2018-01-12T06:04:39.028Z,344.13
2018-01-12T06:07:08.721Z,311.23
2018-01-12T06:09:39.122Z,357.47
2018-01-12T06:12:08.801Z,313.70
2018-01-12T06:14:38.569Z,309.83
2018-01-12T06:17:08.891Z,277.20
2018-01-12T06:19:39.129Z,255.13
2018-01-12T06:22:08.673Z,272.30
2018-01-12T06:24:38.331Z,279.70
2018-01-12T06:28:10.527Z,279.33
2018-01-12T06:30:41.483Z,284.40
2018-01-12T06:33:11.062Z,293.43
2018-01-12T06:35:41.297Z,248.67
2018-01-12T06:38:11.708Z,251.23
2018-01-12T06:40:41.881Z,253.50
2018-01-12T06:43:11.775Z,270.20
2018-01-12T06:45:42.174Z,259.63
2018-01-12T06:48:11.819Z,288.07
2018-01-12T06:50:42.057Z,266.97
2018-01-12T06:53:11.925Z,288.13
2018-01-12T06:55:42.051Z,340.67
2018-01-12T06:58:12.453Z,300.23
2018-01-12T07:00:42.518Z,280.70
2018-01-12T07:03:12.397Z,308.30
2018-01-12T07:05:41.937Z,261.33
2018-01-12T07:08:19.822Z,287.70
2018-01-12T07:10:52.798Z,267.63
2018-01-12T07:13:23.025Z,274.67
2018-01-12T07:15:53.283Z,296.37
2018-01-12T07:18:22.977Z,256.10
2018-01-12T07:24:09.044Z,252.87
2018-01-12T07:26:38.761Z,260.20
2018-01-12T07:29:09.046Z,243.10
2018-01-12T07:31:39.241Z,233.60
2018-01-12T07:34:08.715Z,250.37
2018-01-12T07:36:38.782Z,249.80
2018-01-12T07:39:08.291Z,283.70
2018-01-12T07:41:37.954Z,259.37
2018-01-12T07:44:08.434Z,282.03
2018-01-12T07:46:38.141Z,273.43
2018-01-12T07:49:08.578Z,272.43
2018-01-12T07:51:38.436Z,297.20
2018-01-12T07:54:09.002Z,281.50
2018-01-12T07:56:38.778Z,283.10
2018-01-12T07:59:11.694Z,268.23
2018-01-12T08:01:45.809Z,285.10
2018-01-12T08:04:15.481Z,297.93
2018-01-12T08:06:45.008Z,305.67
2018-01-12T08:09:14.736Z,305.53
2018-01-12T08:11:44.409Z,297.97
2018-01-12T08:14:14.263Z,328.23
2018-01-12T08:16:44.299Z,269.20
2018-01-12T08:19:13.792Z,289.47
2018-01-12T08:21:43.782Z,328.43
2018-01-12T08:24:13.320Z,340.20
2018-01-12T08:26:42.804Z,306.57
2018-01-12T08:29:13.355Z,299.63
2018-01-12T08:31:43.760Z,317.33
2018-01-12T08:34:13.419Z,284.87
2018-01-12T08:36:43.233Z,270.13
2018-01-12T08:39:12.740Z,309.43
2018-01-12T08:41:42.590Z,255.03
2018-01-12T08:44:12.823Z,288.43
2018-01-12T08:46:42.483Z,258.57
2018-01-12T08:49:12.182Z,255.90
2018-01-12T08:51:41.809Z,246.13
2018-01-12T08:54:11.630Z,254.77
2018-01-12T08:56:41.823Z,276.10
2018-01-12T08:59:11.535Z,290.23
2018-01-12T09:01:41.152Z,278.97
2018-01-12T09:04:10.754Z,275.50
2018-01-12T09:06:40.232Z,301.17
2018-01-12T09:09:09.844Z,291.23
2018-01-12T09:11:40.495Z,288.03
2018-01-12T09:14:24.064Z,301.20
2018-01-12T09:16:53.891Z,278.50
2018-01-12T09:19:33.863Z,255.53
2018-01-12T09:22:10.006Z,307.63
2018-01-12T09:24:45.649Z,247.13
2018-01-12T09:27:15.446Z,294.20
2018-01-12T09:29:54.362Z,288.93
2018-01-12T09:32:32.364Z,250.13
2018-01-12T09:35:02.710Z,266.60
2018-01-12T09:37:34.616Z,249.63
2018-01-12T09:40:13.380Z,246.10
2018-01-12T09:42:43.777Z,242.10
2018-01-12T09:45:14.596Z,219.53
2018-01-12T09:47:49.087Z,239.33
2018-01-12T09:50:21.403Z,279.23
2018-01-12T09:52:51.887Z,266.17
2018-01-12T09:55:21.901Z,251.20
2018-01-12T09:57:51.543Z,263.80
2018-01-12T10:00:28.483Z,259.53
2018-01-12T10:03:00.072Z,246.10
2018-01-12T10:05:30.570Z,238.97
2018-01-12T10:08:06.136Z,256.60
2018-01-12T10:10:35.922Z,258.00
2018-01-12T10:13:05.783Z,267.50
2018-01-12T10:15:37.010Z,228.97
2018-01-12T10:18:14.013Z,279.23
2018-01-12T10:20:44.724Z,267.37
2018-01-12T10:23:15.536Z,224.57
2018-01-12T10:25:46.333Z,270.80
2018-01-12T10:28:20.978Z,271.27
2018-01-12T10:31:06.239Z,248.70
2018-01-12T10:33:50.519Z,258.03
2018-01-12T10:36:21.396Z,235.90
2018-01-12T10:38:59.562Z,240.87
2018-01-12T10:41:34.633Z,242.40
2018-01-12T10:44:05.417Z,204.50
2018-01-12T10:46:43.787Z,231.77
2018-01-12T10:49:24.407Z,252.17
2018-01-12T10:52:03.428Z,244.50
2018-01-12T10:54:34.429Z,208.40
2018-01-12T10:57:04.385Z,247.60
2018-01-12T10:59:37.144Z,203.63
2018-01-12T11:02:24.217Z,233.27
2018-01-12T11:05:04.134Z,189.07
2018-01-12T11:07:34.920Z,226.43
2018-01-12T11:10:08.820Z,214.60
2018-01-12T11:12:41.738Z,231.33
2018-01-12T11:15:13.043Z,257.03
2018-01-12T11:17:50.171Z,249.17
2018-01-12T11:20:20.861Z,265.37
2018-01-12T11:22:54.963Z,235.43
2018-01-12T11:25:26.780Z,220.73
2018-01-12T11:28:02.345Z,264.33
2018-01-12T11:30:38.739Z,238.23
2018-01-12T11:33:10.393Z,240.80
2018-01-12T11:35:40.602Z,242.27
2018-01-12T11:38:12.607Z,248.43
2018-01-12T11:40:51.211Z,236.23
2018-01-12T11:43:23.982Z,224.60
2018-01-12T11:46:00.780Z,211.50
2018-01-12T11:48:36.912Z,220.13
2018-01-12T11:51:14.078Z,217.00
2018-01-12T11:53:47.634Z,213.67
2018-01-12T11:56:17.564Z,220.67
2018-01-12T11:58:57.508Z,191.70
2018-01-12T12:01:30.885Z,211.77
2018-01-12T12:04:04.703Z,193.73
2018-01-12T12:06:40.751Z,208.83
2018-01-12T12:09:33.611Z,222.97
2018-01-12T12:12:15.948Z,193.47
2018-01-12T12:14:53.270Z,212.97
2018-01-12T12:17:25.593Z,209.40
2018-01-12T12:19:58.920Z,205.20
2018-01-12T12:22:30.348Z,207.13
2018-01-12T12:25:02.358Z,217.13
2018-01-12T12:27:34.033Z,202.90
2018-01-12T12:30:11.022Z,215.67
2018-01-12T12:32:47.420Z,215.83
2018-01-12T12:35:29.980Z,207.13
2018-01-12T12:38:15.905Z,223.57
2018-01-12T12:41:08.816Z,223.90
2018-01-12T12:43:59.647Z,231.13
2018-01-12T12:46:47.241Z,239.07
2018-01-12T12:49:30.349Z,218.97
2018-01-12T12:55:08.197Z,226.03
2018-01-12T12:57:51.356Z,208.90
2018-01-12T13:00:34.593Z,209.10
2018-01-12T13:03:17.532Z,216.47
2018-01-12T13:05:50.573Z,222.03
2018-01-12T13:08:21.005Z,190.67
2018-01-12T13:10:50.711Z,193.70
2018-01-12T13:13:23.168Z,220.03
2018-01-12T13:16:05.240Z,226.33
2018-01-12T13:18:38.704Z,214.57
2018-01-12T13:21:14.060Z,218.13
2018-01-12T13:23:45.060Z,228.97
2018-01-12T13:26:16.572Z,298.73
2018-01-12T13:28:47.813Z,227.67
2018-01-12T13:31:19.505Z,214.87
2018-01-12T13:33:53.308Z,298.63
2018-01-12T13:36:26.866Z,265.07
2018-01-12T13:39:01.702Z,233.40
2018-01-12T13:41:43.997Z,255.03
2018-01-12T13:44:28.504Z,251.03
2018-01-12T13:46:59.774Z,215.40
2018-01-12T13:49:38.529Z,245.87
2018-01-12T13:52:17.190Z,236.10
2018-01-12T13:54:49.408Z,232.67
2018-01-12T13:57:21.219Z,232.83
2018-01-12T13:59:52.981Z,227.67
2018-01-12T14:02:34.230Z,204.90
2018-01-12T14:05:11.654Z,231.97
2018-01-12T14:07:49.933Z,259.90
2018-01-12T14:10:25.836Z,252.13
2018-01-12T14:13:09.272Z,222.10
2018-01-12T14:15:53.690Z,218.60
2018-01-12T14:21:09.316Z,223.80
2018-01-12T14:23:42.413Z,251.77
2018-01-12T14:26:17.882Z,226.40
2018-01-12T14:28:52.376Z,218.00
2018-01-12T14:31:22.897Z,210.63
2018-01-12T14:33:56.445Z,237.13
2018-01-12T14:36:28.051Z,221.93
2018-01-12T14:39:05.189Z,215.23
2018-01-12T14:41:37.445Z,230.93
2018-01-12T14:44:12.758Z,214.00
2018-01-12T14:46:52.243Z,231.47
2018-01-12T14:49:23.148Z,209.13
2018-01-12T14:57:39.241Z,224.77
2018-01-12T15:00:24.233Z,213.10
2018-01-12T15:02:59.612Z,212.30
2018-01-12T15:05:34.727Z,210.00
2018-01-12T15:08:20.855Z,225.60
2018-01-12T15:10:57.468Z,200.53
2018-01-12T15:13:30.507Z,213.27
2018-01-12T15:16:11.519Z,206.43
2018-01-12T15:18:52.164Z,247.87
2018-01-12T15:21:34.201Z,240.43
2018-01-12T15:24:05.772Z,246.73
2018-01-12T15:26:39.574Z,205.37
2018-01-12T15:29:16.327Z,210.90
2018-01-12T15:32:01.726Z,223.47
2018-01-12T15:34:38.383Z,225.53
2018-01-12T15:37:16.237Z,202.63
2018-01-12T15:39:57.243Z,215.10
2018-01-12T15:42:30.191Z,217.43
2018-01-12T15:45:04.849Z,209.17
2018-01-12T15:47:39.836Z,226.77
2018-01-12T15:50:14.412Z,193.13
2018-01-12T15:52:57.365Z,230.67
2018-01-12T15:55:33.476Z,209.00
2018-01-12T15:58:16.014Z,219.57
2018-01-12T16:00:49.268Z,241.43
2018-01-12T16:03:27.309Z,234.57
2018-01-12T16:06:03.383Z,210.77
2018-01-12T16:11:21.713Z,227.87
2018-01-12T16:14:01.526Z,234.73
2018-01-12T16:16:33.062Z,200.20
2018-01-12T16:19:12.290Z,218.23
2018-01-12T16:21:44.248Z,203.37
2018-01-12T16:24:27.221Z,203.90
2018-01-12T16:27:02.083Z,193.07
2018-01-12T16:29:37.976Z,215.33
2018-01-12T16:32:15.903Z,216.90
2018-01-12T16:35:07.277Z,202.83
2018-01-12T16:37:49.980Z,211.30
2018-01-12T16:40:21.936Z,239.07
2018-01-12T16:42:58.168Z,214.33
2018-01-12T16:45:33.997Z,239.20
2018-01-12T16:48:12.914Z,253.00
2018-01-12T16:50:51.832Z,208.40
2018-01-12T16:53:25.652Z,216.40
2018-01-12T16:55:56.238Z,222.03
2018-01-12T16:58:30.988Z,223.33
2018-01-12T17:01:17.301Z,225.30
2018-01-12T17:03:53.332Z,207.60
2018-01-12T17:06:30.501Z,257.70
2018-01-12T17:09:17.427Z,222.07
2018-01-12T17:11:57.684Z,240.43
2018-01-12T17:14:41.674Z,260.03
2018-01-12T17:17:18.879Z,254.40
2018-01-12T17:20:06.062Z,276.83
2018-01-12T17:22:48.370Z,260.03
2018-01-12T17:25:26.319Z,246.57
2018-01-12T17:28:08.239Z,223.30
2018-01-12T17:30:59.313Z,241.90
2018-01-12T17:33:33.812Z,243.07
2018-01-12T17:36:09.817Z,287.63
2018-01-12T17:38:49.206Z,264.93
2018-01-12T17:44:25.934Z,241.33
2018-01-12T17:47:02.414Z,238.47
2018-01-12T17:49:45.129Z,221.43
2018-01-12T17:52:21.406Z,238.93
2018-01-12T17:54:52.839Z,241.23
2018-01-12T17:57:35.465Z,249.00
2018-01-12T18:00:09.285Z,238.53
2018-01-12T18:03:08.272Z,266.23
2018-01-12T18:05:58.959Z,247.80
2018-01-12T18:08:38.089Z,373.87
2018-01-12T18:11:10.739Z,282.77
2018-01-12T18:16:24.905Z,220.57
2018-01-12T18:19:04.195Z,220.87
2018-01-12T18:21:46.605Z,247.47
2018-01-12T18:24:24.907Z,230.60
2018-01-12T18:26:59.122Z,262.73
2018-01-12T18:29:48.580Z,261.70
2018-01-12T18:32:23.061Z,263.43
2018-01-12T18:34:55.581Z,250.70
2018-01-12T18:37:28.712Z,261.00
2018-01-12T18:40:06.365Z,239.03
2018-01-12T18:42:47.016Z,310.97
2018-01-12T18:45:33.426Z,224.57
2018-01-12T18:48:13.119Z,212.93
2018-01-12T18:50:58.672Z,235.27
2018-01-12T18:53:50.285Z,209.53
2018-01-12T18:56:39.604Z,285.10
2018-01-12T18:59:27.085Z,261.87
2018-01-12T19:02:07.378Z,273.43
2018-01-12T19:05:05.280Z,275.03
2018-01-12T19:08:00.613Z,274.23
2018-01-12T19:13:25.986Z,242.17
2018-01-12T19:15:59.162Z,292.63
2018-01-12T19:18:39.495Z,300.67
2018-01-12T19:21:23.835Z,262.80
2018-01-12T19:24:05.293Z,303.80
2018-01-12T19:26:47.862Z,444.33
2018-01-12T19:29:34.863Z,256.53
2018-01-12T19:34:59.733Z,404.57
2018-01-12T19:37:33.145Z,309.07
2018-01-12T19:40:08.680Z,296.83
2018-01-12T19:42:44.620Z,373.47
2018-01-12T19:45:18.416Z,259.43
2018-01-12T19:47:56.967Z,212.57
2018-01-12T19:50:45.303Z,206.40
2018-01-12T19:53:26.261Z,343.87
2018-01-12T19:56:11.327Z,311.57
2018-01-12T19:58:48.379Z,240.13
2018-01-12T20:01:19.949Z,243.07
2018-01-12T20:03:53.975Z,224.77
2018-01-12T20:06:35.059Z,232.93
2018-01-12T20:11:49.871Z,251.83
2018-01-12T20:14:36.464Z,243.07
2018-01-12T20:17:12.796Z,234.50
2018-01-12T20:19:50.190Z,236.07
2018-01-12T20:22:24.900Z,255.83
2018-01-12T20:25:03.921Z,439.00
2018-01-12T20:27:37.590Z,222.33
2018-01-12T20:30:11.714Z,360.00
2018-01-12T20:32:42.289Z,299.73
2018-01-12T20:35:37.244Z,217.63
2018-01-12T20:38:20.093Z,232.57
2018-01-12T20:40:58.337Z,236.63
2018-01-12T20:43:35.474Z,236.23
2018-01-12T20:46:14.085Z,227.67
2018-01-12T20:48:52.951Z,208.30
2018-01-12T20:51:33.712Z,282.90
2018-01-12T20:54:13.133Z,244.97
2018-01-12T20:56:53.581Z,299.40
2018-01-12T20:59:33.439Z,249.80
2018-01-12T21:02:25.190Z,213.50
2018-01-12T21:07:48.816Z,223.00
2018-01-12T21:10:25.114Z,227.63
2018-01-12T21:13:04.122Z,226.80
2018-01-12T21:15:45.331Z,219.03
2018-01-12T21:18:25.037Z,220.63
2018-01-12T21:21:05.923Z,221.27
2018-01-12T21:23:43.148Z,202.13
2018-01-12T21:26:19.970Z,225.83
2018-01-12T21:28:57.755Z,200.83
2018-01-12T21:31:30.888Z,206.13
2018-01-12T21:34:07.802Z,201.17
2018-01-12T21:36:42.874Z,198.87
2018-01-12T21:39:20.291Z,241.17
2018-01-12T21:41:56.429Z,228.50
2018-01-12T21:44:31.982Z,207.57
2018-01-12T21:47:12.591Z,281.77
2018-01-12T21:49:53.966Z,224.43
2018-01-12T21:52:32.222Z,199.30
2018-01-12T21:55:05.077Z,194.73
2018-01-12T21:57:42.056Z,208.07
2018-01-12T22:00:33.222Z,221.27
2018-01-12T22:03:30.472Z,234.77
2018-01-12T22:06:17.055Z,216.77
2018-01-12T22:08:47.308Z,221.37
2018-01-12T22:11:19.124Z,207.67
2018-01-12T22:13:50.984Z,202.97
2018-01-12T22:16:24.802Z,188.90
2018-01-12T22:18:56.286Z,171.13
2018-01-12T22:21:28.362Z,189.23
2018-01-12T22:24:03.302Z,186.57
2018-01-12T22:26:35.238Z,175.27
2018-01-12T22:29:12.258Z,219.67
2018-01-12T22:31:47.310Z,205.93
2018-01-12T22:34:18.977Z,202.73
2018-01-12T22:36:52.334Z,187.30
2018-01-12T22:39:32.691Z,192.93
2018-01-12T22:42:05.432Z,207.00
2018-01-12T22:44:41.329Z,222.87
2018-01-12T22:47:18.590Z,237.70
2018-01-12T22:49:53.655Z,154.73
2018-01-12T22:52:27.626Z,183.73
2018-01-12T22:55:07.081Z,185.93
2018-01-12T22:57:43.320Z,208.77
2018-01-12T23:00:22.843Z,218.73
2018-01-12T23:02:59.544Z,208.13
2018-01-12T23:05:37.821Z,178.80
2018-01-12T23:08:20.675Z,261.27
2018-01-12T23:11:29.953Z,213.13
2018-01-12T23:14:36.063Z,223.73
2018-01-12T23:17:19.562Z,191.83
2018-01-12T23:20:04.570Z,209.60
2018-01-12T23:22:52.120Z,220.50
2018-01-12T23:25:23.989Z,162.77
2018-01-12T23:27:55.465Z,219.07
2018-01-12T23:30:30.719Z,197.03
2018-01-12T23:33:04.562Z,240.37
2018-01-12T23:35:41.408Z,205.87
2018-01-12T23:38:12.403Z,188.40
2018-01-12T23:40:47.373Z,190.03
2018-01-12T23:43:20.591Z,224.90
2018-01-12T23:45:52.025Z,173.90
2018-01-12T23:48:25.669Z,189.83
2018-01-12T23:51:02.484Z,189.03
2018-01-12T23:53:41.260Z,171.03
2018-01-12T23:56:13.848Z,197.27
2018-01-12T23:58:47.223Z,195.70
